Time;durP1;ratioP1;P1;durP2;ratioP2;P2;SDS_P1;SDS_P2;PMS_P1;PMS_P2;Temp;Humidity;BMP_temperature;BMP_pressure;BME280_temperature;BME280_humidity;BME280_pressure;Samples;Min_cycle;Max_cycle;Signal;HPM_P1;HPM_P2
2021/07/16 00:01:00;;;;;;;18.35;11.85;;;;;;;18.03;77.98;99989.20;2245643;77;21049;-80
2021/07/16 00:04:01;;;;;;;24.43;13.60;;;;;;;18.00;78.31;99987.48;2245894;77;21034;-82
2021/07/16 00:07:06;;;;;;;19.87;14.05;;;;;;;17.99;78.58;99988.01;2245490;77;21085;-80
2021/07/16 00:10:13;;;;;;;22.40;15.25;;;;;;;18.00;78.81;99989.64;2245822;77;21658;-80
2021/07/16 00:13:15;;;;;;;28.45;15.72;;;;;;;18.02;78.99;99993.44;2242042;77;21672;-83
2021/07/16 00:16:17;;;;;;;25.20;16.23;;;;;;;18.05;79.04;99999.73;2245111;77;21061;-88
2021/07/16 00:19:20;;;;;;;24.50;15.40;;;;;;;18.05;79.04;99999.73;2246324;77;20993;-86
2021/07/16 00:22:22;;;;;;;24.40;15.63;;;;;;;18.01;79.11;99995.83;2244064;77;21038;-81
2021/07/16 00:25:24;;;;;;;21.97;14.90;;;;;;;17.95;79.22;100000.73;2244849;77;21595;-85
2021/07/16 00:28:26;;;;;;;21.90;15.25;;;;;;;17.92;79.21;100004.14;2247006;77;20999;-80
2021/07/16 00:31:27;;;;;;;23.18;16.30;;;;;;;17.88;79.38;100010.19;2244714;77;20972;-80
2021/07/16 00:34:29;;;;;;;27.42;15.63;;;;;;;17.86;79.61;100017.63;2244188;77;21465;-81
2021/07/16 00:37:31;;;;;;;26.95;15.95;;;;;;;17.84;79.72;100007.09;2243671;77;21369;-83
2021/07/16 00:40:32;;;;;;;21.62;15.43;;;;;;;17.82;79.71;100009.19;2246043;77;21052;-82
2021/07/16 00:43:34;;;;;;;21.15;15.80;;;;;;;17.82;79.84;100019.92;2245618;77;21082;-81
2021/07/16 00:46:36;;;;;;;27.90;16.45;;;;;;;17.85;79.85;100031.56;2243744;77;21081;-81
2021/07/16 00:49:37;;;;;;;27.62;15.28;;;;;;;17.82;79.98;100027.97;2245523;77;21050;-84
2021/07/16 00:52:40;;;;;;;27.37;15.80;;;;;;;17.80;80.13;100023.33;2243776;77;21100;-86
2021/07/16 00:55:43;;;;;;;24.98;17.57;;;;;;;17.78;80.24;100016.50;2243103;77;20952;-82
2021/07/16 00:58:46;;;;;;;23.18;15.53;;;;;;;17.71;80.32;100023.27;2243639;77;21072;-82
2021/07/16 01:01:48;;;;;;;25.40;15.38;;;;;;;17.70;80.49;100016.23;2246726;77;21533;-80
2021/07/16 01:04:49;;;;;;;26.33;13.78;;;;;;;17.73;80.46;100010.44;2253471;77;21009;-82
2021/07/16 01:07:54;;;;;;;23.83;16.40;;;;;;;17.72;80.36;100010.14;2251907;77;21470;-83
2021/07/16 01:11:01;;;;;;;24.85;17.02;;;;;;;17.67;80.44;100001.39;2256053;77;21601;-82
2021/07/16 01:14:02;;;;;;;24.77;16.17;;;;;;;17.65;80.59;99994.59;2254095;77;21017;-81
2021/07/16 01:17:05;;;;;;;22.52;14.68;;;;;;;17.66;80.54;99988.20;2255550;77;20983;-81
2021/07/16 01:20:18;;;;;;;25.30;15.75;;;;;;;17.64;80.57;99987.59;2250894;77;20964;-81
2021/07/16 01:23:23;;;;;;;32.03;14.85;;;;;;;17.63;80.46;99987.30;2250486;77;21125;-83
2021/07/16 01:26:30;;;;;;;23.80;14.98;;;;;;;17.60;80.54;99983.70;2252348;77;21089;-82
2021/07/16 01:29:30;;;;;;;25.00;15.03;;;;;;;17.60;80.76;99976.48;2248411;77;20980;-82
2021/07/16 01:32:32;;;;;;;33.00;16.12;;;;;;;17.58;80.90;99961.63;2252806;77;21565;-86
2021/07/16 01:35:34;;;;;;;17.57;14.98;;;;;;;17.61;81.14;99961.20;2252619;77;21546;-81
2021/07/16 01:38:36;;;;;;;22.20;15.08;;;;;;;17.60;81.18;99956.36;2257415;77;21578;-81
2021/07/16 01:41:37;;;;;;;17.50;14.50;;;;;;;17.63;81.23;99967.17;2252945;77;20970;-83
2021/07/16 01:44:42;;;;;;;23.32;14.78;;;;;;;17.63;81.22;99967.17;2254798;77;21104;-82
2021/07/16 01:47:49;;;;;;;21.27;14.98;;;;;;;17.67;81.30;99972.40;2255369;77;21027;-81
2021/07/16 01:50:53;;;;;;;19.12;15.90;;;;;;;17.69;81.28;99991.27;2248592;77;21010;-83
2021/07/16 01:53:55;;;;;;;24.77;15.00;;;;;;;17.73;81.29;99986.81;2257169;77;22357;-81
2021/07/16 01:56:58;;;;;;;22.25;15.53;;;;;;;17.77;81.37;99984.83;2252750;77;21398;-81
2021/07/16 01:59:59;;;;;;;21.73;14.68;;;;;;;17.79;81.37;99990.81;2251784;77;21593;-81
2021/07/16 02:03:07;;;;;;;26.10;14.87;;;;;;;17.77;81.19;99993.41;2247439;77;21078;-85
2021/07/16 02:06:08;;;;;;;17.70;13.80;;;;;;;17.77;81.41;99993.41;2245496;77;21006;-82
2021/07/16 02:09:10;;;;;;;16.85;14.10;;;;;;;17.80;81.42;99989.79;2244899;77;21525;-82
2021/07/16 02:12:12;;;;;;;21.20;14.73;;;;;;;17.83;81.28;99995.25;2239239;77;21593;-85
2021/07/16 02:15:23;;;;;;;15.48;12.98;;;;;;;17.83;81.08;99990.70;2241804;77;21096;-81
2021/07/16 02:18:26;;;;;;;17.73;13.00;;;;;;;17.84;81.11;99995.53;2245920;77;21039;-82
2021/07/16 02:21:28;;;;;;;23.73;14.50;;;;;;;17.85;81.18;99992.65;2238444;77;21521;-81
2021/07/16 02:24:30;;;;;;;16.07;14.28;;;;;;;17.84;81.32;99987.48;2246578;77;21046;-81
2021/07/16 02:27:36;;;;;;;16.48;14.47;;;;;;;17.86;81.42;99981.39;2245834;77;21059;-81
2021/07/16 02:30:39;;;;;;;23.87;16.20;;;;;;;17.84;81.46;99968.17;2250395;77;20952;-82
2021/07/16 02:33:42;;;;;;;21.25;15.43;;;;;;;17.85;81.56;99968.50;2249185;77;21058;-81
2021/07/16 02:36:45;;;;;;;23.90;15.53;;;;;;;17.86;81.59;99970.13;2244673;77;20955;-82
2021/07/16 02:39:47;;;;;;;24.00;15.85;;;;;;;17.89;81.64;99965.66;2214662;77;21019;-84
2021/07/16 02:43:08;;;;;;;19.57;16.52;;;;;;;17.87;81.64;99964.23;2245750;77;21576;-82
2021/07/16 02:46:17;;;;;;;22.00;16.07;;;;;;;17.86;81.76;99960.73;2244662;77;21129;-84
2021/07/16 02:49:19;;;;;;;21.48;16.17;;;;;;;17.84;81.76;99960.65;2241769;77;21130;-87
2021/07/16 02:52:20;;;;;;;19.85;15.15;;;;;;;17.82;81.89;99960.88;2239582;77;21058;-81
2021/07/16 02:55:22;;;;;;;21.65;14.58;;;;;;;17.81;81.88;99956.53;2246352;77;20941;-81
2021/07/16 02:58:24;;;;;;;24.77;15.58;;;;;;;17.84;81.89;99962.80;2238375;77;21117;-81
2021/07/16 03:01:25;;;;;;;24.82;15.70;;;;;;;17.87;81.95;99962.89;2247462;77;21077;-81
2021/07/16 03:04:29;;;;;;;24.00;15.08;;;;;;;17.83;81.89;99958.48;2235521;78;21038;-81
2021/07/16 03:07:30;;;;;;;21.77;14.65;;;;;;;17.81;81.93;99965.11;2235986;78;21047;-81
2021/07/16 03:10:38;;;;;;;20.17;15.00;;;;;;;17.79;82.01;99961.81;2234319;78;21042;-81
2021/07/16 03:13:39;;;;;;;22.30;14.55;;;;;;;17.82;82.07;99951.98;2235811;78;21086;-82
2021/07/16 03:16:40;;;;;;;22.67;15.18;;;;;;;17.84;82.12;99952.59;2237401;78;21465;-83
2021/07/16 03:19:42;;;;;;;29.30;16.42;;;;;;;17.85;82.17;99948.37;2236440;78;20990;-82
2021/07/16 03:22:44;;;;;;;20.00;15.68;;;;;;;17.86;82.12;99943.29;2241167;78;21024;-82
2021/07/16 03:25:46;;;;;;;25.30;16.12;;;;;;;17.94;82.23;99945.41;2235845;78;21045;-82
2021/07/16 03:28:47;;;;;;;23.35;15.28;;;;;;;17.99;82.20;99952.27;2233776;78;20976;-82
2021/07/16 03:31:49;;;;;;;21.00;15.13;;;;;;;18.04;82.22;99961.83;2234305;78;21365;-82
2021/07/16 03:34:51;;;;;;;20.75;14.83;;;;;;;18.09;82.10;99972.73;2238753;78;21525;-81
2021/07/16 03:37:53;;;;;;;22.73;14.65;;;;;;;18.14;82.17;99971.56;2237377;78;20968;-81
2021/07/16 03:40:59;;;;;;;25.08;15.45;;;;;;;18.20;82.19;99967.99;2233465;78;21035;-81
2021/07/16 03:44:03;;;;;;;27.02;15.65;;;;;;;18.26;82.23;99960.39;2234209;78;21026;-81
2021/07/16 03:47:11;;;;;;;19.75;14.75;;;;;;;18.34;82.19;99962.80;2237922;78;21090;-84
2021/07/16 03:50:18;;;;;;;35.08;15.35;;;;;;;18.39;82.13;99966.17;2238494;78;20989;-83
2021/07/16 03:53:22;;;;;;;19.45;14.63;;;;;;;18.48;82.28;99962.15;2211039;78;21409;-81
2021/07/16 03:56:23;;;;;;;21.75;15.03;;;;;;;18.55;82.13;99964.75;2241202;78;21058;-86
2021/07/16 03:59:25;;;;;;;26.55;16.02;;;;;;;18.62;82.20;99977.61;2232681;78;21042;-82
2021/07/16 04:02:26;;;;;;;23.35;16.30;;;;;;;18.66;82.06;99982.83;2242702;77;21089;-84
2021/07/16 04:05:30;;;;;;;25.50;15.38;;;;;;;18.65;82.00;99989.26;2249790;77;20973;-82
2021/07/16 04:08:36;;;;;;;27.20;15.90;;;;;;;18.67;82.06;99999.27;2253391;77;21076;-81
2021/07/16 04:11:35;;;;;;;26.57;15.72;;;;;;;18.69;81.98;99997.69;2250310;77;21015;-81
2021/07/16 04:14:43;;;;;;;21.20;14.50;;;;;;;18.70;81.94;100000.69;2251272;77;21024;-85
2021/07/16 04:17:47;;;;;;;21.30;14.93;;;;;;;18.72;81.92;100001.27;2252664;77;21047;-81
2021/07/16 04:20:49;;;;;;;21.87;14.33;;;;;;;18.73;81.85;99998.38;2246372;77;21505;-80
2021/07/16 04:23:50;;;;;;;23.07;14.78;;;;;;;18.75;81.83;99995.48;2245791;77;21435;-81
2021/07/16 04:26:52;;;;;;;22.70;14.38;;;;;;;18.76;81.92;99999.83;2252975;77;21094;-83
2021/07/16 04:29:53;;;;;;;20.25;14.93;;;;;;;18.79;81.89;100000.72;2253739;77;20976;-81
2021/07/16 04:33:00;;;;;;;21.97;13.70;;;;;;;18.85;81.92;100004.38;2250807;77;21003;-81
2021/07/16 04:36:01;;;;;;;19.67;13.10;;;;;;;18.92;82.01;100015.87;2255099;77;21036;-82
2021/07/16 04:39:04;;;;;;;19.57;13.13;;;;;;;19.01;82.06;100018.58;2253969;77;21077;-80
2021/07/16 04:42:07;;;;;;;21.90;13.88;;;;;;;19.08;81.84;100017.97;2255813;77;21084;-81
2021/07/16 04:45:12;;;;;;;20.80;12.95;;;;;;;19.20;81.88;100011.30;2249889;77;21378;-81
2021/07/16 04:48:15;;;;;;;15.80;12.18;;;;;;;19.31;81.83;100016.45;2253950;77;21052;-81
2021/07/16 04:51:33;;;;;;;14.38;12.25;;;;;;;19.36;81.61;100012.03;2254344;77;21011;-81
2021/07/16 04:54:35;;;;;;;13.22;11.57;;;;;;;19.44;81.56;100016.28;2253312;77;21099;-80
2021/07/16 04:57:40;;;;;;;17.75;11.50;;;;;;;19.50;81.38;100019.41;2254553;77;21037;-81
2021/07/16 05:00:41;;;;;;;19.35;11.95;;;;;;;19.51;81.05;100020.22;2248773;77;20999;-81
2021/07/16 05:03:44;;;;;;;17.50;10.75;;;;;;;19.47;81.09;100027.41;2244405;77;20984;-81
2021/07/16 05:06:46;;;;;;;15.53;10.85;;;;;;;19.51;81.23;100030.45;2245452;77;21030;-81
2021/07/16 05:09:50;;;;;;;17.80;10.88;;;;;;;19.55;81.22;100035.70;2246061;77;20959;-81
2021/07/16 05:12:51;;;;;;;20.45;11.33;;;;;;;19.61;81.16;100048.23;2247363;77;21034;-81
2021/07/16 05:15:52;;;;;;;15.10;10.28;;;;;;;19.73;81.05;100056.38;2243074;77;21100;-81
2021/07/16 05:18:54;;;;;;;15.53;10.80;;;;;;;19.83;80.86;100062.05;2244212;77;21569;-82
2021/07/16 05:21:57;;;;;;;19.77;11.90;;;;;;;19.93;80.79;100058.79;2247632;77;21881;-80
2021/07/16 05:24:58;;;;;;;15.38;11.10;;;;;;;19.98;80.64;100065.66;2245794;77;21009;-82
2021/07/16 05:28:00;;;;;;;15.35;10.98;;;;;;;19.99;80.44;100066.48;2246869;77;21015;-81
2021/07/16 05:31:04;;;;;;;17.15;11.65;;;;;;;20.00;80.30;100067.61;2239564;77;21037;-82
2021/07/16 05:34:05;;;;;;;13.10;10.85;;;;;;;20.02;80.45;100069.55;2248580;78;21023;-81
2021/07/16 05:37:07;;;;;;;14.28;11.88;;;;;;;20.03;80.31;100077.09;2240653;77;21752;-80
2021/07/16 05:40:11;;;;;;;13.05;10.82;;;;;;;20.11;80.30;100086.20;2242747;77;21020;-80
2021/07/16 05:43:13;;;;;;;14.28;10.60;;;;;;;20.25;80.30;100087.64;2244307;77;20946;-84
2021/07/16 05:46:18;;;;;;;11.12;10.00;;;;;;;20.33;80.02;100085.96;2237083;77;21035;-80
2021/07/16 05:49:19;;;;;;;16.10;10.85;;;;;;;20.42;79.87;100089.66;2246044;77;21024;-82
2021/07/16 05:52:23;;;;;;;16.30;10.80;;;;;;;20.47;79.62;100092.45;2246012;77;21068;-82
2021/07/16 05:55:31;;;;;;;14.85;10.25;;;;;;;20.55;79.76;100091.66;2243845;77;21044;-82
2021/07/16 05:58:33;;;;;;;13.43;10.13;;;;;;;20.72;79.70;100090.94;2248455;77;21500;-79
2021/07/16 06:01:34;;;;;;;12.55;10.48;;;;;;;20.82;79.45;100081.74;2247910;77;21040;-78
2021/07/16 06:04:37;;;;;;;12.65;10.65;;;;;;;20.83;79.14;100083.38;2254606;77;21060;-78
2021/07/16 06:07:40;;;;;;;16.02;10.35;;;;;;;20.85;79.19;100085.31;2248973;77;21033;-86
2021/07/16 06:10:41;;;;;;;16.48;10.88;;;;;;;20.89;79.28;100088.36;2253450;77;20987;-81
2021/07/16 06:13:42;;;;;;;15.53;10.43;;;;;;;20.92;79.11;100073.89;2252889;77;20984;-83
2021/07/16 06:16:50;;;;;;;15.23;10.48;;;;;;;20.97;79.22;100068.59;2255296;77;21024;-79
2021/07/16 06:19:54;;;;;;;11.55;9.65;;;;;;;21.05;79.23;100065.53;2250861;77;21607;-79
2021/07/16 06:22:58;;;;;;;12.50;10.80;;;;;;;21.05;79.02;100060.13;2253226;77;21017;-78
2021/07/16 06:25:59;;;;;;;13.28;10.05;;;;;;;21.04;78.93;100056.34;2252865;77;21072;-85
2021/07/16 06:29:06;;;;;;;15.43;10.90;;;;;;;21.05;78.82;100059.32;2257302;77;21531;-81
2021/07/16 06:32:08;;;;;;;15.28;11.78;;;;;;;21.05;78.67;100061.48;2253680;77;21073;-83
2021/07/16 06:35:10;;;;;;;16.45;10.85;;;;;;;21.09;78.81;100054.27;2254193;77;21070;-84
2021/07/16 06:38:12;;;;;;;12.82;10.98;;;;;;;21.15;78.74;100055.50;2215656;77;21021;-80
2021/07/16 06:41:14;;;;;;;14.25;11.63;;;;;;;21.20;78.65;100054.77;2250116;77;21030;-81
2021/07/16 06:44:15;;;;;;;16.17;11.38;;;;;;;21.27;78.72;100052.77;2200770;79;21714;-80
2021/07/16 06:47:17;;;;;;;16.67;11.85;;;;;;;21.33;78.59;100046.95;2173862;80;21059;-79
2021/07/16 06:50:20;;;;;;;14.25;11.75;;;;;;;21.35;78.39;100044.30;2146065;80;21037;-79
2021/07/16 06:53:21;;;;;;;16.87;11.00;;;;;;;21.42;78.54;100049.58;2176135;80;21123;-80
2021/07/16 06:56:24;;;;;;;13.35;11.03;;;;;;;21.49;78.53;100052.44;2212266;79;21114;-84
2021/07/16 06:59:25;;;;;;;15.75;10.78;;;;;;;21.62;78.44;100047.80;2140323;81;21481;-78
2021/07/16 07:02:26;;;;;;;18.07;10.20;;;;;;;21.74;78.13;100051.80;2175588;80;21694;-73
2021/07/16 07:05:28;;;;;;;15.83;10.93;;;;;;;21.81;77.97;100054.66;2149231;81;20963;-74
2021/07/16 07:08:29;;;;;;;18.85;11.03;;;;;;;21.97;78.01;100063.86;2181878;80;21123;-74
2021/07/16 07:11:31;;;;;;;13.45;10.43;;;;;;;22.20;77.84;100059.42;2175511;80;21076;-80
2021/07/16 07:14:32;;;;;;;14.13;11.03;;;;;;;22.37;77.52;100064.29;2173795;80;21041;-75
2021/07/16 07:17:33;;;;;;;14.93;11.35;;;;;;;22.53;77.29;100064.83;2160856;81;21033;-74
2021/07/16 07:20:37;;;;;;;13.50;11.25;;;;;;;22.74;77.03;100076.75;2191772;80;20981;-76
2021/07/16 07:23:40;;;;;;;17.45;11.00;;;;;;;22.90;76.41;100078.34;2185959;80;21076;-74
2021/07/16 07:26:41;;;;;;;12.68;11.38;;;;;;;23.04;76.27;100079.66;2191645;80;21061;-74
2021/07/16 07:29:42;;;;;;;11.95;10.80;;;;;;;23.15;75.68;100086.84;2187710;80;21132;-74
2021/07/16 07:32:43;;;;;;;15.15;10.93;;;;;;;23.26;75.24;100084.55;2152799;81;21065;-76
2021/07/16 07:35:44;;;;;;;14.18;11.03;;;;;;;23.34;74.85;100081.10;2157825;81;20978;-75
2021/07/16 07:38:46;;;;;;;18.30;11.97;;;;;;;23.47;74.84;100076.67;2188886;80;21043;-74
2021/07/16 07:41:47;;;;;;;14.98;11.78;;;;;;;23.61;74.55;100071.69;2187938;80;21038;-73
2021/07/16 07:44:49;;;;;;;12.75;10.30;;;;;;;23.69;74.13;100070.69;2193126;80;20953;-74
2021/07/16 07:47:51;;;;;;;14.60;11.63;;;;;;;23.83;73.96;100064.91;2193667;80;21095;-74
2021/07/16 07:50:52;;;;;;;12.63;10.95;;;;;;;23.87;73.37;100074.96;2178510;80;21060;-72
2021/07/16 07:53:53;;;;;;;15.20;10.80;;;;;;;23.90;73.05;100083.12;2149813;81;20994;-73
2021/07/16 07:56:55;;;;;;;15.10;11.22;;;;;;;23.96;72.93;100084.80;2171125;80;21076;-73
2021/07/16 07:59:56;;;;;;;14.50;11.33;;;;;;;24.11;72.82;100090.38;2157583;81;21118;-72
2021/07/16 08:02:57;;;;;;;13.38;11.55;;;;;;;24.26;72.60;100084.81;2190844;80;21017;-73
2021/07/16 08:06:00;;;;;;;12.90;11.35;;;;;;;24.41;72.17;100083.58;2174623;80;21037;-73
2021/07/16 08:09:01;;;;;;;14.40;11.20;;;;;;;24.56;71.67;100084.28;2240206;77;21009;-73
2021/07/16 08:12:06;;;;;;;12.82;11.28;;;;;;;24.70;71.61;100080.59;2245906;77;21567;-75
2021/07/16 08:15:11;;;;;;;15.05;11.43;;;;;;;24.82;71.14;100082.56;2251283;77;21107;-74
2021/07/16 08:18:12;;;;;;;17.73;11.48;;;;;;;24.87;70.81;100089.38;2244186;77;21054;-76
2021/07/16 08:21:13;;;;;;;14.90;10.65;;;;;;;24.91;70.69;100093.73;2243789;77;21021;-74
2021/07/16 08:24:16;;;;;;;13.43;11.78;;;;;;;25.08;70.39;100097.63;2247785;77;21453;-73
2021/07/16 08:27:17;;;;;;;13.62;12.20;;;;;;;25.27;69.88;100093.42;2248233;77;21468;-74
2021/07/16 08:30:19;;;;;;;14.80;12.18;;;;;;;25.33;69.35;100096.97;2248026;77;20967;-75
2021/07/16 08:33:20;;;;;;;19.00;12.37;;;;;;;25.43;69.06;100092.95;2242744;77;21574;-73
2021/07/16 08:36:21;;;;;;;15.65;12.37;;;;;;;25.66;68.84;100090.31;2245121;77;21010;-75
2021/07/16 08:39:23;;;;;;;16.50;11.68;;;;;;;25.99;68.43;100082.78;2240673;77;21035;-79
2021/07/16 08:42:26;;;;;;;15.80;13.60;;;;;;;26.39;68.40;100086.91;2242657;77;21489;-74
2021/07/16 08:45:28;;;;;;;20.15;12.78;;;;;;;27.11;68.00;100092.25;2246812;77;20970;-73
2021/07/16 08:48:31;;;;;;;16.45;12.40;;;;;;;27.71;66.68;100095.84;2248662;77;21606;-73
2021/07/16 08:51:33;;;;;;;15.55;12.13;;;;;;;28.14;65.45;100085.23;2250583;77;21423;-76
2021/07/16 08:54:44;;;;;;;16.77;11.83;;;;;;;28.55;64.96;100083.57;2248580;77;21026;-74
2021/07/16 08:57:41;;;;;;;16.90;11.40;;;;;;;28.86;63.53;100083.80;2245863;77;21011;-74
2021/07/16 09:00:47;;;;;;;15.45;11.12;;;;;;;29.17;63.38;100089.77;2249077;77;20990;-73
2021/07/16 09:04:02;;;;;;;18.15;11.60;;;;;;;29.65;62.90;100086.99;2238569;77;21083;-74
2021/07/16 09:07:04;;;;;;;20.00;11.33;;;;;;;29.94;61.46;100086.87;2226431;78;21078;-75
2021/07/16 09:10:09;;;;;;;15.45;12.25;;;;;;;30.04;60.20;100094.09;2225313;78;21040;-74
2021/07/16 09:13:13;;;;;;;17.42;11.78;;;;;;;30.44;58.61;100097.30;2229505;78;21752;-70
2021/07/16 09:16:18;;;;;;;15.98;12.10;;;;;;;30.44;58.61;100097.30;2221652;78;21144;-73
2021/07/16 09:19:30;;;;;;;15.83;12.23;;;;;;;30.44;57.94;100101.41;2223321;78;21050;-75
2021/07/16 09:22:34;;;;;;;18.42;11.35;;;;;;;30.44;57.94;100101.41;2233180;78;20994;-75
2021/07/16 09:25:35;;;;;;;19.02;11.45;;;;;;;30.38;57.41;100099.31;2228091;78;21105;-73
2021/07/16 09:28:39;;;;;;;15.50;11.63;;;;;;;30.51;56.83;100103.22;2224744;78;21051;-73
2021/07/16 09:31:44;;;;;;;22.82;10.50;;;;;;;30.69;56.69;100091.41;2229903;78;21034;-74
2021/07/16 09:34:51;;;;;;;17.92;10.50;;;;;;;30.99;56.62;100102.92;2227771;78;21578;-72
2021/07/16 09:37:59;;;;;;;17.93;11.73;;;;;;;31.30;56.11;100094.91;2227200;78;20965;-73
2021/07/16 09:41:08;;;;;;;14.15;10.48;;;;;;;31.55;54.59;100092.78;2224874;78;21104;-74
2021/07/16 09:44:08;;;;;;;14.95;10.95;;;;;;;31.71;55.02;100090.77;2233810;78;20960;-72
2021/07/16 09:47:18;;;;;;;13.08;10.53;;;;;;;31.60;54.00;100088.00;2221726;78;21022;-76
2021/07/16 09:50:24;;;;;;;20.48;11.20;;;;;;;31.22;53.71;100093.68;2220017;78;21373;-75
2021/07/16 09:53:27;;;;;;;12.78;10.85;;;;;;;30.84;53.97;100095.81;2224440;78;21120;-79
2021/07/16 09:56:38;;;;;;;15.28;10.60;;;;;;;30.11;53.13;100098.64;2223741;78;21653;-74
2021/07/16 09:59:41;;;;;;;13.35;10.48;;;;;;;29.65;53.81;100098.77;2227562;78;21103;-72
2021/07/16 10:02:56;;;;;;;12.28;10.98;;;;;;;29.49;54.34;100100.84;2230416;78;21008;-74
2021/07/16 10:06:01;;;;;;;20.35;11.00;;;;;;;29.30;54.63;100106.02;2248393;77;21020;-76
2021/07/16 10:09:03;;;;;;;12.95;10.65;;;;;;;29.21;54.25;100104.48;2250926;77;20936;-77
2021/07/16 10:12:05;;;;;;;14.85;10.48;;;;;;;29.94;55.56;100099.98;2254868;77;21024;-72
2021/07/16 10:15:12;;;;;;;14.00;9.43;;;;;;;29.94;55.56;100099.98;2257044;77;20948;-74
2021/07/16 10:18:14;;;;;;;15.88;10.45;;;;;;;30.45;54.54;100102.49;2255554;77;21022;-73
2021/07/16 10:21:15;;;;;;;18.00;9.45;;;;;;;30.85;53.59;100102.09;2251826;77;21018;-76
2021/07/16 10:24:23;;;;;;;20.68;9.55;;;;;;;31.07;53.25;100102.22;2253334;77;21050;-77
2021/07/16 10:27:25;;;;;;;15.10;9.90;;;;;;;30.96;52.32;100095.31;2253863;77;21530;-82
2021/07/16 10:30:33;;;;;;;16.15;8.90;;;;;;;30.98;52.55;100101.31;2252490;77;21027;-73
2021/07/16 10:33:43;;;;;;;13.48;9.20;;;;;;;30.94;52.90;100106.56;2251416;77;21085;-73
2021/07/16 10:36:50;;;;;;;17.48;9.03;;;;;;;31.05;51.73;100098.97;2250146;77;21717;-75
2021/07/16 10:39:53;;;;;;;18.27;8.90;;;;;;;31.28;51.42;100093.02;2254741;77;21009;-75
2021/07/16 10:42:54;;;;;;;18.02;9.10;;;;;;;31.07;49.15;100096.73;2249149;77;21111;-75
2021/07/16 10:45:59;;;;;;;15.70;8.50;;;;;;;31.19;50.94;100094.86;2253752;77;21007;-76
2021/07/16 10:49:03;;;;;;;16.50;9.25;;;;;;;31.54;50.64;100103.47;2250046;77;21054;-78
2021/07/16 10:52:06;;;;;;;15.68;8.98;;;;;;;31.45;49.92;100102.02;2254951;77;21005;-77
2021/07/16 10:55:11;;;;;;;15.30;8.70;;;;;;;30.93;49.08;100094.55;2252213;77;21062;-80
2021/07/16 10:58:29;;;;;;;15.13;9.83;;;;;;;30.84;49.89;100090.91;2248664;77;21581;-78
2021/07/16 11:01:37;;;;;;;15.15;8.60;;;;;;;30.79;50.00;100091.77;2254815;77;21061;-76
2021/07/16 11:04:38;;;;;;;14.68;8.70;;;;;;;30.51;49.88;100096.38;2245128;77;21027;-75
2021/07/16 11:07:41;;;;;;;12.85;8.23;;;;;;;30.52;49.02;100089.78;2243720;77;21063;-75
2021/07/16 11:10:51;;;;;;;11.63;8.45;;;;;;;30.30;49.13;100091.25;2246474;77;21089;-75
2021/07/16 11:13:57;;;;;;;16.65;8.25;;;;;;;29.91;48.47;100092.93;2246191;77;21023;-74
2021/07/16 11:17:02;;;;;;;13.00;8.43;;;;;;;29.74;49.28;100087.17;2242664;77;21034;-83
2021/07/16 11:20:16;;;;;;;13.10;8.50;;;;;;;29.67;50.06;100090.25;2239435;77;21034;-74
2021/07/16 11:23:19;;;;;;;13.30;7.92;;;;;;;29.71;50.89;100087.20;2240652;77;21475;-73
2021/07/16 11:26:20;;;;;;;14.63;8.20;;;;;;;30.23;51.22;100078.50;2241607;77;21101;-79
2021/07/16 11:29:26;;;;;;;12.65;8.30;;;;;;;30.64;51.14;100081.91;2246288;77;20943;-73
2021/07/16 11:32:28;;;;;;;9.83;8.25;;;;;;;30.55;50.48;100081.80;2240597;77;20952;-74
2021/07/16 11:35:30;;;;;;;10.53;7.67;;;;;;;30.70;50.63;100083.44;2245187;77;20995;-76
2021/07/16 11:38:31;;;;;;;11.28;7.20;;;;;;;31.16;49.74;100077.09;2245320;77;21047;-78
2021/07/16 11:41:35;;;;;;;14.10;7.12;;;;;;;31.43;49.87;100082.34;2248087;77;21018;-78
2021/07/16 11:44:42;;;;;;;12.63;7.42;;;;;;;31.61;47.16;100080.58;2243833;77;21523;-83
2021/07/16 11:47:46;;;;;;;13.95;7.87;;;;;;;31.57;47.84;100074.09;2248291;77;21038;-76
2021/07/16 11:50:49;;;;;;;9.68;7.62;;;;;;;31.46;47.34;100074.87;2242096;77;22337;-80
2021/07/16 11:53:50;;;;;;;9.23;7.15;;;;;;;31.33;47.78;100077.04;2242243;77;20997;-77
2021/07/16 11:56:59;;;;;;;9.23;6.60;;;;;;;31.29;47.66;100078.78;2246932;77;20975;-75
2021/07/16 12:00:01;;;;;;;11.45;7.42;;;;;;;31.48;47.25;100077.56;2250029;77;22333;-73
2021/07/16 12:03:15;;;;;;;12.73;6.22;;;;;;;31.58;45.96;100078.45;2243493;77;21059;-73
2021/07/16 12:06:18;;;;;;;9.03;6.97;;;;;;;31.77;46.39;100077.74;2227796;77;21052;-75
2021/07/16 12:09:40;;;;;;;12.15;6.50;;;;;;;31.97;45.97;100079.23;2252448;77;21046;-76
2021/07/16 12:12:43;;;;;;;8.90;6.47;;;;;;;32.16;44.79;100068.08;2252417;77;21515;-73
2021/07/16 12:15:49;;;;;;;11.78;7.37;;;;;;;32.00;45.83;100073.69;2250814;77;21045;-72
2021/07/16 12:18:50;;;;;;;7.97;7.17;;;;;;;31.58;45.55;100069.66;2248360;77;21054;-77
2021/07/16 12:21:52;;;;;;;10.85;6.97;;;;;;;30.87;46.18;100072.49;2249548;77;21645;-71
2021/07/16 12:24:56;;;;;;;10.68;6.95;;;;;;;30.86;47.41;100073.59;2252943;77;21055;-76
2021/07/16 12:28:17;;;;;;;7.80;6.97;;;;;;;31.01;47.28;100070.00;2253661;77;21102;-78
2021/07/16 12:31:22;;;;;;;9.20;7.08;;;;;;;31.22;47.73;100073.12;2248573;77;21046;-73
2021/07/16 12:34:26;;;;;;;8.13;6.87;;;;;;;31.37;47.55;100076.72;2250035;77;21038;-75
2021/07/16 12:37:37;;;;;;;8.68;6.30;;;;;;;31.46;47.18;100076.24;2254901;77;21069;-76
2021/07/16 12:40:40;;;;;;;10.72;6.70;;;;;;;31.33;45.86;100083.89;2255938;77;21068;-73
2021/07/16 12:43:43;;;;;;;12.37;6.33;;;;;;;31.18;45.82;100086.39;2255693;77;21029;-75
2021/07/16 12:46:47;;;;;;;11.43;7.42;;;;;;;31.27;45.83;100088.10;2255254;77;21062;-84
2021/07/16 12:49:49;;;;;;;8.98;7.08;;;;;;;31.48;46.25;100083.58;2233864;77;21461;-74
2021/07/16 12:53:01;;;;;;;9.38;6.75;;;;;;;31.44;46.02;100088.88;2256131;77;21330;-75
2021/07/16 12:56:23;;;;;;;8.53;6.47;;;;;;;31.35;46.27;100089.89;2254214;77;21107;-75
2021/07/16 12:59:30;;;;;;;12.37;6.42;;;;;;;31.35;45.31;100092.63;2253102;77;21092;-78
2021/07/16 13:02:31;;;;;;;8.98;6.00;;;;;;;31.27;45.55;100078.51;2259113;77;21095;-77
2021/07/16 13:05:35;;;;;;;7.15;6.45;;;;;;;31.25;45.28;100079.39;2246873;77;21288;-77
2021/07/16 13:08:36;;;;;;;7.72;6.85;;;;;;;31.32;44.73;100076.80;2244133;77;21120;-76
2021/07/16 13:11:40;;;;;;;11.57;6.80;;;;;;;31.25;45.25;100075.28;2241881;77;21002;-78
2021/07/16 13:14:53;;;;;;;11.78;6.72;;;;;;;31.38;45.09;100068.74;2240572;77;21005;-75
2021/07/16 13:18:00;;;;;;;7.33;6.15;;;;;;;31.38;45.32;100067.37;2243386;77;21003;-76
2021/07/16 13:21:01;;;;;;;9.30;6.12;;;;;;;31.23;44.63;100062.44;2241081;77;21063;-75
2021/07/16 13:24:05;;;;;;;7.60;5.70;;;;;;;31.16;44.12;100053.00;2241405;77;20981;-74
2021/07/16 13:27:07;;;;;;;7.75;6.47;;;;;;;31.07;44.02;100047.98;2241346;77;20980;-76
2021/07/16 13:30:11;;;;;;;7.87;6.70;;;;;;;30.92;44.25;100047.18;2240969;77;20974;-74
2021/07/16 13:33:16;;;;;;;10.23;7.33;;;;;;;30.67;44.31;100047.08;2211575;78;21088;-81
2021/07/16 13:36:18;;;;;;;10.05;6.70;;;;;;;30.28;45.06;100041.48;2241554;77;21487;-73
2021/07/16 13:39:19;;;;;;;10.08;6.80;;;;;;;30.25;46.07;100039.91;2242159;77;21078;-75
2021/07/16 13:42:21;;;;;;;14.47;6.78;;;;;;;30.27;44.87;100031.66;2243116;77;21035;-76
2021/07/16 13:45:22;;;;;;;9.35;6.80;;;;;;;30.29;44.52;100030.77;2239818;77;21044;-73
2021/07/16 13:48:24;;;;;;;10.13;7.10;;;;;;;30.33;45.30;100033.19;2243852;78;21673;-76
2021/07/16 13:51:26;;;;;;;7.40;6.65;;;;;;;30.42;45.32;100031.93;2217506;77;21019;-71
2021/07/16 13:54:27;;;;;;;9.10;6.72;;;;;;;30.52;45.28;100033.66;2235334;77;21067;-70
2021/07/16 13:57:29;;;;;;;15.43;7.50;;;;;;;30.42;44.17;100039.34;2242789;78;21034;-75
2021/07/16 14:00:32;;;;;;;12.15;7.30;;;;;;;30.38;45.06;100041.31;2238161;77;21157;-71